createdAt,value
2017-02-28T00:00:10.683Z,12.17
2017-02-28T00:01:11.104Z,12.27
2017-02-28T00:02:11.112Z,12.27
2017-02-28T00:03:11.169Z,12.29
2017-02-28T00:04:11.147Z,12.29
2017-02-28T00:05:11.180Z,12.29
2017-02-28T00:06:11.192Z,12.29
2017-02-28T00:07:11.220Z,12.31
2017-02-28T00:08:11.216Z,12.27
2017-02-28T00:09:11.259Z,12.24
2017-02-28T00:10:11.256Z,12.28
2017-02-28T00:11:11.294Z,12.25
2017-02-28T00:12:11.296Z,12.22
2017-02-28T00:13:11.342Z,12.22
2017-02-28T00:14:11.313Z,12.29
2017-02-28T00:15:11.333Z,12.28
2017-02-28T00:16:11.362Z,12.27
2017-02-28T00:17:11.363Z,12.27
2017-02-28T00:18:11.403Z,12.27
2017-02-28T00:19:11.398Z,12.22
2017-02-28T00:20:11.428Z,12.35
2017-02-28T00:21:11.044Z,12.22
2017-02-28T00:22:11.451Z,12.24
2017-02-28T00:23:11.482Z,12.37
2017-02-28T00:24:11.493Z,12.29
2017-02-28T00:25:11.539Z,12.28
2017-02-28T00:26:11.145Z,12.28
2017-02-28T00:27:11.563Z,12.28
2017-02-28T00:28:11.565Z,12.29
2017-02-28T00:29:11.588Z,12.45
2017-02-28T00:30:11.603Z,12.27
2017-02-28T00:31:11.624Z,12.39
2017-02-28T00:32:11.642Z,12.28
2017-02-28T00:33:11.665Z,12.39
2017-02-28T00:34:11.673Z,12.32
2017-02-28T00:35:11.686Z,12.4
2017-02-28T00:36:11.716Z,12.36
2017-02-28T00:37:11.736Z,12.36
2017-02-28T00:38:11.732Z,12.37
2017-02-28T00:39:11.758Z,12.39
2017-02-28T00:40:11.765Z,12.37
2017-02-28T00:41:11.812Z,12.42
2017-02-28T00:42:11.795Z,12.35
2017-02-28T00:43:11.846Z,12.37
2017-02-28T00:44:11.833Z,12.47
2017-02-28T00:45:11.859Z,12.42
2017-02-28T00:46:11.870Z,12.42
2017-02-28T00:47:11.893Z,12.31
2017-02-28T00:48:11.934Z,12.46
2017-02-28T00:49:11.921Z,12.37
2017-02-28T00:50:11.554Z,12.4
2017-02-28T00:51:11.961Z,12.43
2017-02-28T00:52:11.570Z,12.31
2017-02-28T00:53:11.997Z,12.31
2017-02-28T00:54:11.990Z,12.4
2017-02-28T00:55:12.047Z,12.35
2017-02-28T00:56:11.633Z,12.31
2017-02-28T00:57:12.083Z,12.35
2017-02-28T00:58:12.084Z,12.43
2017-02-28T00:59:12.113Z,12.35
2017-02-28T01:00:11.717Z,12.42
2017-02-28T01:01:12.148Z,12.43
2017-02-28T01:02:12.143Z,12.31
2017-02-28T01:03:12.170Z,12.39
2017-02-28T01:04:12.176Z,12.4
2017-02-28T01:05:12.205Z,12.37
2017-02-28T01:06:11.811Z,12.37
2017-02-28T01:07:12.245Z,12.42
2017-02-28T01:08:11.852Z,12.29
2017-02-28T01:09:12.283Z,12.39
2017-02-28T01:10:12.269Z,12.4
2017-02-28T01:11:12.318Z,12.43
2017-02-28T01:12:12.318Z,12.42
2017-02-28T01:13:12.324Z,12.42
2017-02-28T01:14:12.340Z,12.39
2017-02-28T01:15:12.356Z,12.43
2017-02-28T01:16:12.379Z,12.39
2017-02-28T01:17:12.408Z,12.25
2017-02-28T01:18:12.419Z,12.39
2017-02-28T01:19:12.435Z,12.4
2017-02-28T01:20:12.050Z,12.36
2017-02-28T01:21:12.475Z,12.4
2017-02-28T01:22:12.087Z,12.35
2017-02-28T01:23:12.512Z,12.42
2017-02-28T01:24:12.522Z,12.29
2017-02-28T01:25:12.548Z,12.35
2017-02-28T01:26:12.542Z,12.28
2017-02-28T01:27:12.595Z,12.28
2017-02-28T01:28:12.586Z,12.28
2017-02-28T01:29:12.624Z,12.32
2017-02-28T01:30:12.613Z,12.27
2017-02-28T01:31:12.690Z,12.35
2017-02-28T01:32:12.649Z,12.32
2017-02-28T01:33:12.686Z,12.35
2017-02-28T01:34:12.691Z,12.27
2017-02-28T01:35:12.723Z,12.29
2017-02-28T01:36:12.739Z,12.35
2017-02-28T01:37:12.755Z,12.32
2017-02-28T01:38:12.745Z,12.29
2017-02-28T01:39:12.803Z,12.31
2017-02-28T01:40:12.784Z,12.25
2017-02-28T01:41:12.808Z,12.25
2017-02-28T01:42:12.834Z,12.29
2017-02-28T01:43:12.861Z,12.32
2017-02-28T01:44:12.851Z,12.29
2017-02-28T01:45:12.898Z,12.21
2017-02-28T01:46:12.892Z,12.27
2017-02-28T01:47:12.916Z,12.28
2017-02-28T01:48:12.931Z,12.25
2017-02-28T01:49:12.953Z,12.25
2017-02-28T01:50:12.575Z,12.21
2017-02-28T01:51:12.983Z,12.24
2017-02-28T01:52:12.595Z,12.28
2017-02-28T01:53:13.041Z,12.2
2017-02-28T01:54:13.033Z,12.22
2017-02-28T01:55:13.057Z,12.27
2017-02-28T01:56:13.056Z,12.25
2017-02-28T01:57:13.097Z,12.22
2017-02-28T01:58:13.092Z,12.21
2017-02-28T01:59:13.126Z,12.17
2017-02-28T02:00:12.745Z,12.18
2017-02-28T02:01:13.176Z,12.18
2017-02-28T02:02:13.182Z,12.21
2017-02-28T02:03:13.199Z,12.1
2017-02-28T02:04:13.193Z,12.2
2017-02-28T02:05:13.230Z,12.15
2017-02-28T02:06:13.236Z,12.13
2017-02-28T02:07:13.265Z,12.2
2017-02-28T02:08:13.280Z,12.12
2017-02-28T02:09:13.311Z,12.15
2017-02-28T02:10:13.305Z,12.13
2017-02-28T02:11:13.351Z,12.13
2017-02-28T02:12:13.331Z,12.2
2017-02-28T02:13:13.371Z,12.17
2017-02-28T02:14:13.374Z,12.12
2017-02-28T02:15:13.408Z,12.09
2017-02-28T02:16:13.401Z,12.2
2017-02-28T02:17:13.436Z,12.07
2017-02-28T02:18:13.450Z,12.1
2017-02-28T02:19:13.467Z,12.12
2017-02-28T02:20:13.465Z,12.17
2017-02-28T02:21:13.527Z,12.06
2017-02-28T02:22:13.500Z,12.09
2017-02-28T02:23:13.536Z,12.1
2017-02-28T02:24:13.532Z,12.03
2017-02-28T02:25:13.587Z,12
2017-02-28T02:26:13.580Z,12.1
2017-02-28T02:27:13.604Z,12.13
2017-02-28T02:28:13.607Z,12.03
2017-02-28T02:29:13.624Z,12.06
2017-02-28T02:30:13.672Z,12.13
2017-02-28T02:31:13.658Z,12.09
2017-02-28T02:32:13.681Z,12.13
2017-02-28T02:33:13.705Z,12.07
2017-02-28T02:34:13.727Z,12.13
2017-02-28T02:35:13.736Z,12.03
2017-02-28T02:36:13.732Z,12.1
2017-02-28T02:37:13.767Z,12.07
2017-02-28T02:38:13.775Z,12.07
2017-02-28T02:39:13.806Z,12.09
2017-02-28T02:40:13.805Z,11.99
2017-02-28T02:41:13.874Z,12.06
2017-02-28T02:42:13.851Z,12.07
2017-02-28T02:43:13.878Z,12.06
2017-02-28T02:44:13.877Z,12.02
2017-02-28T02:45:13.908Z,12.02
2017-02-28T02:46:13.908Z,12.02
2017-02-28T02:47:13.975Z,12.13
2017-02-28T02:48:13.937Z,12.07
2017-02-28T02:49:13.972Z,11.97
2017-02-28T02:50:13.977Z,12.02
2017-02-28T02:51:14.012Z,11.95
2017-02-28T02:52:14.009Z,12.04
2017-02-28T02:53:13.648Z,11.99
2017-02-28T02:54:14.050Z,12.04
2017-02-28T02:55:14.111Z,11.99
2017-02-28T02:56:14.099Z,12
2017-02-28T02:57:14.118Z,11.88
2017-02-28T02:58:14.113Z,11.87
2017-02-28T02:59:14.154Z,11.88
2017-02-28T03:00:14.161Z,11.94
2017-02-28T03:01:14.198Z,11.91
2017-02-28T03:02:14.179Z,11.99
2017-02-28T03:03:14.212Z,11.86
2017-02-28T03:04:14.217Z,11.9
2017-02-28T03:05:14.249Z,11.97
2017-02-28T03:06:14.249Z,11.99
2017-02-28T03:07:14.304Z,11.91
2017-02-28T03:08:14.282Z,11.91
2017-02-28T03:09:14.324Z,11.81
2017-02-28T03:10:14.314Z,11.94
2017-02-28T03:11:14.371Z,11.91
2017-02-28T03:12:14.364Z,11.94
2017-02-28T03:13:14.382Z,11.84
2017-02-28T03:14:14.377Z,11.87
2017-02-28T03:15:14.514Z,11.87
2017-02-28T03:16:14.502Z,11.83
2017-02-28T03:17:14.146Z,11.86
2017-02-28T03:18:14.746Z,11.84
2017-02-28T03:19:14.619Z,11.86
2017-02-28T03:20:14.624Z,11.78
2017-02-28T03:21:14.629Z,11.88
2017-02-28T03:22:14.645Z,11.83
2017-02-28T03:23:14.536Z,11.87
2017-02-28T03:24:14.547Z,11.77
2017-02-28T03:25:14.566Z,11.73
2017-02-28T03:26:14.588Z,11.69
2017-02-28T03:27:14.602Z,11.72
2017-02-28T03:28:14.617Z,11.72
2017-02-28T03:29:14.640Z,11.86
2017-02-28T03:30:14.659Z,11.83
2017-02-28T03:31:14.667Z,11.8
2017-02-28T03:32:14.695Z,11.8
2017-02-28T03:33:14.716Z,11.8
2017-02-28T03:34:14.716Z,11.78
2017-02-28T03:35:14.807Z,11.75
2017-02-28T03:36:14.806Z,11.78
2017-02-28T03:37:14.878Z,11.8
2017-02-28T03:38:14.899Z,11.8
2017-02-28T03:39:14.892Z,11.77
2017-02-28T03:40:14.910Z,11.7
2017-02-28T03:41:14.918Z,11.77
2017-02-28T03:42:14.935Z,11.69
2017-02-28T03:43:15.101Z,11.77
2017-02-28T03:44:14.576Z,11.75
2017-02-28T03:45:14.910Z,11.63
2017-02-28T03:46:14.931Z,11.75
2017-02-28T03:47:14.944Z,11.72
2017-02-28T03:48:14.957Z,11.72
2017-02-28T03:49:14.970Z,11.7
2017-02-28T03:50:14.593Z,11.65
2017-02-28T03:51:14.997Z,11.77
2017-02-28T03:52:15.016Z,11.68
2017-02-28T03:53:15.030Z,11.66
2017-02-28T03:54:15.072Z,11.72
2017-02-28T03:55:15.088Z,11.72
2017-02-28T03:56:15.083Z,11.7
2017-02-28T03:57:15.100Z,11.69
2017-02-28T03:58:15.118Z,11.63
2017-02-28T03:59:15.130Z,11.7
2017-02-28T04:00:15.151Z,11.75
2017-02-28T04:01:15.185Z,11.69
2017-02-28T04:02:15.190Z,11.65
2017-02-28T04:03:15.208Z,11.7
2017-02-28T04:04:15.223Z,11.66
2017-02-28T04:05:15.250Z,11.65
2017-02-28T04:06:15.255Z,11.57
2017-02-28T04:07:15.268Z,11.59
2017-02-28T04:08:15.281Z,11.51
2017-02-28T04:09:15.305Z,11.57
2017-02-28T04:10:15.323Z,11.55
2017-02-28T04:11:15.336Z,11.47
2017-02-28T04:12:14.957Z,11.45
2017-02-28T04:13:15.377Z,11.48
2017-02-28T04:14:15.408Z,11.44
2017-02-28T04:15:15.420Z,11.41
2017-02-28T04:16:15.642Z,11.4
2017-02-28T04:17:15.465Z,11.43
2017-02-28T04:18:15.451Z,11.37
2017-02-28T04:19:15.548Z,11.32
2017-02-28T04:20:15.496Z,11.32
2017-02-28T04:21:15.506Z,11.36
2017-02-28T04:22:15.235Z,11.32
2017-02-28T04:23:15.698Z,11.26
2017-02-28T04:24:15.662Z,11.27
2017-02-28T04:25:15.569Z,11.23
2017-02-28T04:26:15.611Z,11.22
2017-02-28T04:27:15.703Z,11.22
2017-02-28T04:28:15.712Z,11.19
2017-02-28T04:29:15.643Z,11.14
2017-02-28T04:30:15.654Z,11.15
2017-02-28T04:31:15.686Z,11.12
2017-02-28T04:32:15.730Z,11.05
2017-02-28T04:33:15.711Z,11
2017-02-28T04:34:15.727Z,10.94
2017-02-28T04:35:15.737Z,11.02
2017-02-28T04:36:15.748Z,11.02
2017-02-28T04:37:15.777Z,10.99
2017-02-28T04:38:15.792Z,10.97
2017-02-28T04:39:15.799Z,10.94
2017-02-28T04:40:15.837Z,10.93
2017-02-28T04:41:15.837Z,10.9
2017-02-28T04:42:15.855Z,10.89
2017-02-28T04:43:15.868Z,10.92
2017-02-28T04:44:15.898Z,10.92
2017-02-28T04:45:15.906Z,10.84
2017-02-28T04:46:15.920Z,10.9
2017-02-28T04:47:15.929Z,10.82
2017-02-28T04:48:15.942Z,10.86
2017-02-28T04:49:15.970Z,10.89
2017-02-28T04:50:15.603Z,10.86
2017-02-28T04:51:16.004Z,10.79
2017-02-28T04:52:16.024Z,10.9
2017-02-28T04:53:16.023Z,10.82
2017-02-28T04:54:16.119Z,10.81
2017-02-28T04:55:16.063Z,10.68
2017-02-28T04:56:16.085Z,10.78
2017-02-28T04:57:16.098Z,10.76
2017-02-28T04:58:16.291Z,10.78
2017-02-28T04:59:16.126Z,10.81
2017-02-28T05:00:16.148Z,10.81
2017-02-28T05:01:16.159Z,10.69
2017-02-28T05:02:16.172Z,10.78
2017-02-28T05:03:16.195Z,10.68
2017-02-28T05:04:16.220Z,10.61
2017-02-28T05:05:16.243Z,10.61
2017-02-28T05:06:16.255Z,10.68
2017-02-28T05:07:15.863Z,10.68
2017-02-28T05:08:16.372Z,10.51
2017-02-28T05:09:16.291Z,10.54
2017-02-28T05:10:16.403Z,10.54
2017-02-28T05:11:16.414Z,10.59
2017-02-28T05:12:16.420Z,10.59
2017-02-28T05:13:16.430Z,10.53
2017-02-28T05:14:16.440Z,10.48
2017-02-28T05:15:16.437Z,10.49
2017-02-28T05:16:16.447Z,10.49
2017-02-28T05:17:16.032Z,10.42
2017-02-28T05:18:16.466Z,10.48
2017-02-28T05:19:16.474Z,10.44
2017-02-28T05:20:16.474Z,10.42
2017-02-28T05:21:16.540Z,10.4
2017-02-28T05:22:16.549Z,10.4
2017-02-28T05:23:16.558Z,10.41
2017-02-28T05:24:16.565Z,10.42
2017-02-28T05:25:16.566Z,10.38
2017-02-28T05:26:16.166Z,10.37
2017-02-28T05:27:16.584Z,10.35
2017-02-28T05:28:16.596Z,10.41
2017-02-28T05:29:16.674Z,10.41
2017-02-28T05:30:16.743Z,10.38
2017-02-28T05:31:16.753Z,10.28
2017-02-28T05:32:16.757Z,10.3
2017-02-28T05:33:16.912Z,10.33
2017-02-28T05:34:16.773Z,10.35
2017-02-28T05:35:16.927Z,10.3
2017-02-28T05:36:16.828Z,10.28
2017-02-28T05:37:16.939Z,10.31
2017-02-28T05:38:16.765Z,10.41
2017-02-28T05:39:16.769Z,10.3
2017-02-28T05:40:16.794Z,10.33
2017-02-28T05:41:16.805Z,10.35
2017-02-28T05:42:16.826Z,10.31
2017-02-28T05:43:16.827Z,10.25
2017-02-28T05:44:17.085Z,10.28
2017-02-28T05:45:17.039Z,10.33
2017-02-28T05:46:17.039Z,10.34
2017-02-28T05:47:17.047Z,10.3
2017-02-28T05:48:17.055Z,10.28
2017-02-28T05:49:17.065Z,10.33
2017-02-28T05:50:17.073Z,10.26
2017-02-28T05:51:17.074Z,10.3
2017-02-28T05:52:16.681Z,10.28
2017-02-28T05:53:16.996Z,10.28
2017-02-28T05:54:16.629Z,10.25
2017-02-28T05:55:17.025Z,10.28
2017-02-28T05:56:17.044Z,10.26
2017-02-28T05:57:17.089Z,10.23
2017-02-28T05:58:16.790Z,10.26
2017-02-28T05:59:17.185Z,10.25
2017-02-28T06:00:17.118Z,10.26
2017-02-28T06:01:17.127Z,10.28
2017-02-28T06:02:17.135Z,10.26
2017-02-28T06:03:17.231Z,10.3
2017-02-28T06:04:17.165Z,10.26
2017-02-28T06:05:17.369Z,10.26
2017-02-28T06:06:17.199Z,10.28
2017-02-28T06:07:17.217Z,10.2
2017-02-28T06:08:17.239Z,10.23
2017-02-28T06:09:17.251Z,10.26
2017-02-28T06:10:17.256Z,10.25
2017-02-28T06:11:17.384Z,10.16
2017-02-28T06:12:17.390Z,10.25
2017-02-28T06:13:16.914Z,10.25
2017-02-28T06:14:17.326Z,10.17
2017-02-28T06:15:17.349Z,10.16
2017-02-28T06:16:17.467Z,10.13
2017-02-28T06:17:17.479Z,10.07
2017-02-28T06:18:17.498Z,10.15
2017-02-28T06:19:17.399Z,10.1
2017-02-28T06:20:17.422Z,10.09
2017-02-28T06:21:17.032Z,10.09
2017-02-28T06:22:17.446Z,10.12
2017-02-28T06:23:17.479Z,10.16
2017-02-28T06:24:17.500Z,10.13
2017-02-28T06:25:17.492Z,10.17
2017-02-28T06:26:17.608Z,10.1
2017-02-28T06:27:17.536Z,10.15
2017-02-28T06:28:17.538Z,10.22
2017-02-28T06:29:17.666Z,10.17
2017-02-28T06:30:17.700Z,10.15
2017-02-28T06:31:17.616Z,10.16
2017-02-28T06:32:17.221Z,10.19
2017-02-28T06:33:17.627Z,10.13
2017-02-28T06:34:17.840Z,10.16
2017-02-28T06:35:17.654Z,10.25
2017-02-28T06:36:17.422Z,10.16
2017-02-28T06:37:17.759Z,10.17
2017-02-28T06:38:17.707Z,10.23
2017-02-28T06:39:17.711Z,10.17
2017-02-28T06:40:17.842Z,10.19
2017-02-28T06:41:17.856Z,10.16
2017-02-28T06:42:17.758Z,10.19
2017-02-28T06:43:17.771Z,10.13
2017-02-28T06:44:17.802Z,10.12
2017-02-28T06:45:17.821Z,10.17
2017-02-28T06:46:17.860Z,10.12
2017-02-28T06:47:17.958Z,10.09
2017-02-28T06:48:17.860Z,10.12
2017-02-28T06:49:17.501Z,10.17
2017-02-28T06:50:17.888Z,10.2
2017-02-28T06:51:17.902Z,10.19
2017-02-28T06:52:17.922Z,10.17
2017-02-28T06:53:17.934Z,10.1
2017-02-28T06:54:17.671Z,10.1
2017-02-28T06:55:17.956Z,10.16
2017-02-28T06:56:17.977Z,10.19
2017-02-28T06:57:18.000Z,10.16
2017-02-28T06:58:18.113Z,10.13
2017-02-28T06:59:17.653Z,10.16
2017-02-28T07:00:18.050Z,10.13
2017-02-28T07:01:18.072Z,10.13
2017-02-28T07:02:18.084Z,10.19
2017-02-28T07:03:18.080Z,10.12
2017-02-28T07:04:17.722Z,10.16
2017-02-28T07:05:17.844Z,10.16
2017-02-28T07:06:18.138Z,10.12
2017-02-28T07:07:17.758Z,10.1
2017-02-28T07:08:18.212Z,10.16
2017-02-28T07:09:18.178Z,10.12
2017-02-28T07:10:18.191Z,10.12
2017-02-28T07:11:18.204Z,10.09
2017-02-28T07:12:18.221Z,10.17
2017-02-28T07:13:18.240Z,10.09
2017-02-28T07:14:18.253Z,10.09
2017-02-28T07:15:17.870Z,10.15
2017-02-28T07:16:17.887Z,10.13
2017-02-28T07:17:18.302Z,10.13
2017-02-28T07:18:18.326Z,10.16
2017-02-28T07:19:17.942Z,10.1
2017-02-28T07:20:18.345Z,10.07
2017-02-28T07:21:18.380Z,10.15
2017-02-28T07:22:17.980Z,10.1
2017-02-28T07:23:18.387Z,10.17
2017-02-28T07:24:18.418Z,10.09
2017-02-28T07:25:18.435Z,10.12
2017-02-28T07:26:18.049Z,10.09
2017-02-28T07:27:18.451Z,10.15
2017-02-28T07:28:18.471Z,10.16
2017-02-28T07:29:18.094Z,10.15
2017-02-28T07:30:18.499Z,10.19
2017-02-28T07:31:18.127Z,10.12
2017-02-28T07:32:18.531Z,10.15
2017-02-28T07:33:18.546Z,10.16
2017-02-28T07:34:18.559Z,10.05
2017-02-28T07:35:18.583Z,10.16
2017-02-28T07:36:18.607Z,10.17
2017-02-28T07:37:18.607Z,10.17
2017-02-28T07:38:18.622Z,10.2
2017-02-28T07:39:18.779Z,10.2
2017-02-28T07:40:18.260Z,10.13
2017-02-28T07:41:18.679Z,10.12
2017-02-28T07:42:18.682Z,10.12
2017-02-28T07:43:18.701Z,10.15
2017-02-28T07:44:18.715Z,10.12
2017-02-28T07:45:18.728Z,10.1
2017-02-28T07:46:18.743Z,10.13
2017-02-28T07:47:18.757Z,10.15
2017-02-28T07:48:18.421Z,10.12
2017-02-28T07:49:18.806Z,10.22
2017-02-28T07:50:18.807Z,10.2
2017-02-28T07:51:18.856Z,10.25
2017-02-28T07:52:18.842Z,10.13
2017-02-28T07:53:18.847Z,10.2
2017-02-28T07:54:18.863Z,10.22
2017-02-28T07:55:18.482Z,10.26
2017-02-28T07:56:18.912Z,10.23
2017-02-28T07:57:18.911Z,10.26
2017-02-28T07:58:18.547Z,10.26
2017-02-28T07:59:18.946Z,10.28
2017-02-28T08:00:18.958Z,10.31
2017-02-28T08:01:18.974Z,10.25
2017-02-28T08:02:19.134Z,10.34
2017-02-28T08:03:19.117Z,10.34
2017-02-28T08:04:19.119Z,10.31
2017-02-28T08:05:19.033Z,10.33
2017-02-28T08:06:19.058Z,10.34
2017-02-28T08:07:19.069Z,10.26
2017-02-28T08:08:19.093Z,10.37
2017-02-28T08:09:19.103Z,10.37
2017-02-28T08:10:19.120Z,10.41
2017-02-28T08:11:19.246Z,10.34
2017-02-28T08:12:19.253Z,10.28
2017-02-28T08:13:19.184Z,10.33
2017-02-28T08:14:18.866Z,10.35
2017-02-28T08:15:18.794Z,10.31
2017-02-28T08:16:18.929Z,10.38
2017-02-28T08:17:18.832Z,10.4
2017-02-28T08:18:19.248Z,10.4
2017-02-28T08:19:19.365Z,10.37
2017-02-28T08:20:18.967Z,10.37
2017-02-28T08:21:18.890Z,10.37
2017-02-28T08:22:18.910Z,10.37
2017-02-28T08:23:19.331Z,10.4
2017-02-28T08:24:19.337Z,10.38
2017-02-28T08:25:19.343Z,10.44
2017-02-28T08:26:18.977Z,10.41
2017-02-28T08:27:19.391Z,10.38
2017-02-28T08:28:19.404Z,10.44
2017-02-28T08:29:19.471Z,10.37
2017-02-28T08:30:19.432Z,10.44
2017-02-28T08:31:19.549Z,10.38
2017-02-28T08:32:19.124Z,10.41
2017-02-28T08:33:19.554Z,10.38
2017-02-28T08:34:19.088Z,10.48
2017-02-28T08:35:19.502Z,10.44
2017-02-28T08:36:19.521Z,10.48
2017-02-28T08:37:19.616Z,10.44
2017-02-28T08:38:19.151Z,10.41
2017-02-28T08:39:19.567Z,10.56
2017-02-28T08:40:19.588Z,10.49
2017-02-28T08:41:19.219Z,10.49
2017-02-28T08:42:19.212Z,10.57
2017-02-28T08:43:19.623Z,10.59
2017-02-28T08:44:19.647Z,10.59
2017-02-28T08:45:19.662Z,10.56
2017-02-28T08:46:19.676Z,10.57
2017-02-28T08:47:19.303Z,10.59
2017-02-28T08:48:19.704Z,10.57
2017-02-28T08:49:19.323Z,10.64
2017-02-28T08:50:19.764Z,10.67
2017-02-28T08:51:19.754Z,10.67
2017-02-28T08:52:19.781Z,10.59
2017-02-28T08:53:19.789Z,10.64
2017-02-28T08:54:19.801Z,10.64
2017-02-28T08:55:19.893Z,10.59
2017-02-28T08:56:19.831Z,10.67
2017-02-28T08:57:19.554Z,10.59
2017-02-28T08:58:19.976Z,10.61
2017-02-28T08:59:19.970Z,10.63
2017-02-28T09:00:19.905Z,10.59
2017-02-28T09:01:19.938Z,10.67
2017-02-28T09:02:19.993Z,10.61
2017-02-28T09:03:19.543Z,10.64
2017-02-28T09:04:19.955Z,10.67
2017-02-28T09:05:19.692Z,10.67
2017-02-28T09:06:20.074Z,10.67
2017-02-28T09:07:20.025Z,10.67
2017-02-28T09:08:19.746Z,10.6
2017-02-28T09:09:19.688Z,10.64
2017-02-28T09:10:20.049Z,10.68
2017-02-28T09:11:20.066Z,10.59
2017-02-28T09:12:20.202Z,10.61
2017-02-28T09:13:20.101Z,10.63
2017-02-28T09:14:20.116Z,10.63
2017-02-28T09:15:19.745Z,10.67
2017-02-28T09:16:20.155Z,10.68
2017-02-28T09:17:20.160Z,10.71
2017-02-28T09:18:20.183Z,10.81
2017-02-28T09:19:19.799Z,10.69
2017-02-28T09:20:20.204Z,10.72
2017-02-28T09:21:20.217Z,10.81
2017-02-28T09:22:20.272Z,10.74
2017-02-28T09:23:20.253Z,10.79
2017-02-28T09:24:20.282Z,10.78
2017-02-28T09:25:20.293Z,10.93
2017-02-28T09:26:20.303Z,10.84
2017-02-28T09:27:20.318Z,10.76
2017-02-28T09:28:20.332Z,10.84
2017-02-28T09:29:20.358Z,10.86
2017-02-28T09:30:20.372Z,10.81
2017-02-28T09:31:20.392Z,10.92
2017-02-28T09:32:20.415Z,10.86
2017-02-28T09:33:20.426Z,10.84
2017-02-28T09:34:20.449Z,10.87
2017-02-28T09:35:20.445Z,10.89
2017-02-28T09:36:20.484Z,10.87
2017-02-28T09:37:20.501Z,10.93
2017-02-28T09:38:20.513Z,10.9
2017-02-28T09:39:20.505Z,10.93
2017-02-28T09:40:20.525Z,10.93
2017-02-28T09:41:20.540Z,10.96
2017-02-28T09:42:20.579Z,10.9
2017-02-28T09:43:20.581Z,10.94
2017-02-28T09:44:20.599Z,10.93
2017-02-28T09:45:20.607Z,10.9
2017-02-28T09:46:20.628Z,10.99
2017-02-28T09:47:20.637Z,11
2017-02-28T09:48:20.254Z,10.96
2017-02-28T09:49:20.780Z,10.97
2017-02-28T09:50:20.684Z,10.97
2017-02-28T09:51:20.304Z,10.96
2017-02-28T09:52:20.833Z,10.96
2017-02-28T09:53:20.768Z,11.02
2017-02-28T09:54:19.953Z,11
2017-02-28T09:55:20.775Z,11.04
2017-02-28T09:56:20.792Z,11.02
2017-02-28T09:57:20.800Z,11.08
2017-02-28T09:58:20.416Z,11.12
2017-02-28T09:59:20.882Z,11.14
2017-02-28T10:00:20.952Z,11.12
2017-02-28T10:01:20.974Z,11.1
2017-02-28T10:02:20.962Z,11.15
2017-02-28T10:03:21.105Z,11.19
2017-02-28T10:04:21.109Z,11.15
2017-02-28T10:05:21.120Z,11.12
2017-02-28T10:06:20.740Z,11.12
2017-02-28T10:07:21.064Z,11.1
2017-02-28T10:08:20.874Z,11.1
2017-02-28T10:09:20.766Z,11.02
2017-02-28T10:10:21.161Z,11.1
2017-02-28T10:11:21.163Z,11
2017-02-28T10:12:21.145Z,10.99
2017-02-28T10:13:21.389Z,11.07
2017-02-28T10:14:21.190Z,11
2017-02-28T10:15:21.201Z,11
2017-02-28T10:16:21.333Z,11.02
2017-02-28T10:17:21.127Z,11
2017-02-28T10:18:21.133Z,10.94
2017-02-28T10:19:21.163Z,10.99
2017-02-28T10:20:21.171Z,10.97
2017-02-28T10:21:21.189Z,10.96
2017-02-28T10:22:21.208Z,10.94
2017-02-28T10:23:21.228Z,10.97
2017-02-28T10:24:21.240Z,10.99
2017-02-28T10:25:21.241Z,11
2017-02-28T10:26:21.264Z,10.97
2017-02-28T10:27:21.277Z,10.92
2017-02-28T10:28:20.898Z,10.94
2017-02-28T10:29:21.328Z,10.97
2017-02-28T10:30:21.326Z,10.99
2017-02-28T10:31:21.356Z,10.99
2017-02-28T10:32:21.359Z,11.04
2017-02-28T10:33:21.376Z,11.02
2017-02-28T10:34:21.136Z,11.04
2017-02-28T10:35:21.414Z,11.02
2017-02-28T10:36:21.154Z,10.97
2017-02-28T10:37:21.555Z,10.99
2017-02-28T10:38:21.560Z,11.04
2017-02-28T10:39:21.565Z,11.05
2017-02-28T10:40:21.099Z,11.08
2017-02-28T10:41:21.120Z,11.1
2017-02-28T10:42:21.123Z,11.1
2017-02-28T10:43:21.547Z,11.12
2017-02-28T10:44:21.572Z,11.11
2017-02-28T10:45:21.580Z,11.17
2017-02-28T10:46:21.594Z,11.22
2017-02-28T10:47:21.595Z,11.29
2017-02-28T10:48:21.627Z,11.18
2017-02-28T10:49:21.641Z,11.33
2017-02-28T10:50:21.649Z,11.3
2017-02-28T10:51:21.286Z,11.32
2017-02-28T10:52:21.680Z,11.37
2017-02-28T10:53:21.698Z,11.4
2017-02-28T10:54:21.708Z,11.47
2017-02-28T10:55:21.726Z,11.45
2017-02-28T10:56:21.738Z,11.5
2017-02-28T10:57:21.763Z,11.51
2017-02-28T10:58:21.776Z,11.59
2017-02-28T10:59:21.790Z,11.66
2017-02-28T11:00:21.816Z,11.72
2017-02-28T11:01:21.846Z,11.69
2017-02-28T11:02:21.852Z,11.81
2017-02-28T11:03:21.853Z,11.88
2017-02-28T11:04:21.896Z,11.9
2017-02-28T11:05:21.902Z,11.84
2017-02-28T11:06:21.904Z,12
2017-02-28T11:07:21.918Z,12
2017-02-28T11:08:21.951Z,12.04
2017-02-28T11:09:21.955Z,12.03
2017-02-28T11:10:21.970Z,12.12
2017-02-28T11:11:22.084Z,12.22
2017-02-28T11:12:22.021Z,12.24
2017-02-28T11:13:22.022Z,12.28
2017-02-28T11:14:22.208Z,12.27
2017-02-28T11:15:22.264Z,12.29
2017-02-28T11:16:22.174Z,12.4
2017-02-28T11:17:22.188Z,12.4
2017-02-28T11:18:22.293Z,12.4
2017-02-28T11:19:21.845Z,12.45
2017-02-28T11:20:22.252Z,12.42
2017-02-28T11:21:22.249Z,12.4
2017-02-28T11:22:21.881Z,12.47
2017-02-28T11:23:22.278Z,12.46
2017-02-28T11:24:22.241Z,12.47
2017-02-28T11:25:22.269Z,12.49
2017-02-28T11:26:22.262Z,12.53
2017-02-28T11:27:22.330Z,12.54
2017-02-28T11:28:21.872Z,12.64
2017-02-28T11:29:21.895Z,12.55
2017-02-28T11:30:22.292Z,12.62
2017-02-28T11:31:22.319Z,12.65
2017-02-28T11:32:22.346Z,12.65
2017-02-28T11:33:22.355Z,12.64
2017-02-28T11:34:22.377Z,12.65
2017-02-28T11:35:22.394Z,12.62
2017-02-28T11:36:22.011Z,12.65
2017-02-28T11:37:22.419Z,12.67
2017-02-28T11:38:22.433Z,12.67
2017-02-28T11:39:22.455Z,12.67
2017-02-28T11:40:22.463Z,12.72
2017-02-28T11:41:22.493Z,12.64
2017-02-28T11:42:22.505Z,12.64
2017-02-28T11:43:22.615Z,12.7
2017-02-28T11:44:22.544Z,12.61
2017-02-28T11:45:22.561Z,12.58
2017-02-28T11:46:22.571Z,12.68
2017-02-28T11:47:22.701Z,12.64
2017-02-28T11:48:22.599Z,12.57
2017-02-28T11:49:22.233Z,12.49
2017-02-28T11:50:22.244Z,12.5
2017-02-28T11:51:22.666Z,12.47
2017-02-28T11:52:22.681Z,12.49
2017-02-28T11:53:22.679Z,12.45
2017-02-28T11:54:22.704Z,12.53
2017-02-28T11:55:22.823Z,12.45
2017-02-28T11:56:22.341Z,12.45
2017-02-28T11:57:22.852Z,12.4
2017-02-28T11:58:22.876Z,12.42
2017-02-28T11:59:22.783Z,12.46
2017-02-28T12:00:22.802Z,12.43
2017-02-28T12:01:22.816Z,12.42
2017-02-28T12:02:22.845Z,12.47
2017-02-28T12:03:22.455Z,12.45
2017-02-28T12:04:22.870Z,12.39
2017-02-28T12:05:22.885Z,12.45
2017-02-28T12:06:22.918Z,12.45
2017-02-28T12:07:22.918Z,12.39
2017-02-28T12:08:22.943Z,12.4
2017-02-28T12:09:22.950Z,12.45
2017-02-28T12:10:22.990Z,12.46
2017-02-28T12:11:22.995Z,12.53
2017-02-28T12:12:23.013Z,12.53
2017-02-28T12:13:23.020Z,12.54
2017-02-28T12:14:23.038Z,12.46
2017-02-28T12:15:23.062Z,12.46
2017-02-28T12:16:23.089Z,12.54
2017-02-28T12:17:23.085Z,12.57
2017-02-28T12:18:22.707Z,12.46
2017-02-28T12:19:22.727Z,12.46
2017-02-28T12:20:23.145Z,12.5
2017-02-28T12:21:23.162Z,12.46
2017-02-28T12:22:23.166Z,12.53
2017-02-28T12:23:23.191Z,12.46
2017-02-28T12:24:23.215Z,12.37
2017-02-28T12:25:23.226Z,12.42
2017-02-28T12:26:23.251Z,12.49
2017-02-28T12:27:23.256Z,12.39
2017-02-28T12:28:23.303Z,12.39
2017-02-28T12:29:23.289Z,12.47
2017-02-28T12:30:22.918Z,12.46
2017-02-28T12:31:22.946Z,12.45
2017-02-28T12:32:23.352Z,12.49
2017-02-28T12:33:23.367Z,12.46
2017-02-28T12:34:23.384Z,12.45
2017-02-28T12:35:23.391Z,12.43
2017-02-28T12:36:23.413Z,12.46
2017-02-28T12:37:23.437Z,12.47
2017-02-28T12:38:23.446Z,12.43
2017-02-28T12:39:23.473Z,12.47
2017-02-28T12:40:23.481Z,12.45
2017-02-28T12:41:23.508Z,12.47
2017-02-28T12:42:23.515Z,12.43
2017-02-28T12:43:23.539Z,12.47
2017-02-28T12:44:23.647Z,12.45
2017-02-28T12:45:23.588Z,12.46
2017-02-28T12:46:23.662Z,12.53
2017-02-28T12:47:23.672Z,12.49
2017-02-28T12:48:23.678Z,12.5
2017-02-28T12:49:23.745Z,12.49
2017-02-28T12:50:23.754Z,12.64
2017-02-28T12:51:23.747Z,12.65
2017-02-28T12:52:23.768Z,12.61
2017-02-28T12:53:23.786Z,12.62
2017-02-28T12:54:23.408Z,12.65
2017-02-28T12:55:23.451Z,12.65
2017-02-28T12:56:23.471Z,12.68